createdAt,value
2022-09-24T00:01:35.073Z,29.11
2022-09-24T00:04:07.310Z,28.99
2022-09-24T00:06:36.637Z,29.10
2022-09-24T00:09:04.107Z,29.06
2022-09-24T00:11:30.871Z,29.04
2022-09-24T00:13:58.569Z,29.04
2022-09-24T00:16:27.382Z,29.14
2022-09-24T00:18:54.643Z,29.09
2022-09-24T00:21:25.228Z,28.99
2022-09-24T00:23:57.407Z,28.94
2022-09-24T00:26:43.425Z,28.85
2022-09-24T00:29:12.354Z,28.79
2022-09-24T00:31:39.136Z,28.80
2022-09-24T00:34:05.720Z,29.00
2022-09-24T00:36:32.417Z,28.92
2022-09-24T00:39:00.214Z,28.96
2022-09-24T00:41:33.310Z,28.96
2022-09-24T00:44:00.806Z,28.94
2022-09-24T00:46:42.895Z,28.85
2022-09-24T00:49:16.353Z,28.80
2022-09-24T00:51:45.404Z,28.84
2022-09-24T00:54:18.098Z,28.86
2022-09-24T00:56:46.846Z,28.89
2022-09-24T00:59:17.265Z,28.67
2022-09-24T01:01:48.771Z,28.73
2022-09-24T01:04:21.057Z,28.72
2022-09-24T01:06:52.057Z,28.79
2022-09-24T01:09:21.486Z,28.82
2022-09-24T01:12:02.074Z,28.71
2022-09-24T01:14:50.275Z,28.67
2022-09-24T01:17:38.450Z,28.64
2022-09-24T01:20:17.324Z,28.60
2022-09-24T01:23:26.371Z,28.67
2022-09-24T01:26:12.131Z,28.72
2022-09-24T01:29:00.501Z,28.66
2022-09-24T01:31:36.082Z,28.64
2022-09-24T01:34:05.748Z,28.50
2022-09-24T01:36:35.475Z,28.54
2022-09-24T01:39:05.190Z,28.63
2022-09-24T01:41:36.519Z,28.76
2022-09-24T01:44:07.784Z,28.58
2022-09-24T01:46:38.510Z,28.63
2022-09-24T01:49:07.132Z,28.62
2022-09-24T01:51:50.446Z,28.63
2022-09-24T01:54:24.906Z,28.59
2022-09-24T01:56:53.617Z,28.34
2022-09-24T01:59:30.093Z,28.63
2022-09-24T02:02:07.541Z,28.51
2022-09-24T02:04:39.455Z,28.63
2022-09-24T02:07:29.882Z,28.72
2022-09-24T02:09:56.402Z,28.46
2022-09-24T02:12:35.508Z,28.35
2022-09-24T02:15:20.811Z,28.26
2022-09-24T02:17:53.267Z,28.08
2022-09-24T02:20:21.936Z,27.99
2022-09-24T02:22:51.274Z,28.09
2022-09-24T02:25:25.069Z,28.12
2022-09-24T02:27:51.700Z,28.13
2022-09-24T02:30:18.776Z,28.05
2022-09-24T02:32:45.551Z,27.96
2022-09-24T02:35:13.132Z,27.93
2022-09-24T02:37:44.346Z,27.82
2022-09-24T02:40:13.899Z,27.80
2022-09-24T02:42:42.299Z,27.62
2022-09-24T02:45:10.325Z,27.61
2022-09-24T02:47:37.524Z,27.57
2022-09-24T02:50:04.647Z,27.47
2022-09-24T02:52:31.600Z,27.65
2022-09-24T02:54:58.139Z,27.64
2022-09-24T02:57:25.095Z,27.62
2022-09-24T02:59:51.590Z,27.61
2022-09-24T03:02:18.169Z,27.51
2022-09-24T03:04:44.853Z,27.32
2022-09-24T03:07:14.482Z,27.14
2022-09-24T03:09:41.041Z,26.88
2022-09-24T03:12:08.161Z,26.68
2022-09-24T03:14:34.690Z,26.45
2022-09-24T03:17:01.199Z,26.63
2022-09-24T03:19:28.143Z,26.23
2022-09-24T03:21:55.053Z,26.32
2022-09-24T03:24:21.559Z,26.14
2022-09-24T03:26:48.071Z,26.38
2022-09-24T03:29:14.623Z,26.12
2022-09-24T03:31:41.216Z,26.12
2022-09-24T03:34:08.680Z,26.34
2022-09-24T03:36:35.212Z,25.76
2022-09-24T03:39:01.726Z,25.90
2022-09-24T03:41:28.501Z,25.68
2022-09-24T03:43:55.889Z,25.36
2022-09-24T03:46:29.967Z,25.57
2022-09-24T03:48:58.955Z,25.71
2022-09-24T03:51:25.925Z,26.18
2022-09-24T03:53:52.459Z,26.12
2022-09-24T03:56:18.991Z,25.72
2022-09-24T03:58:47.852Z,25.57
2022-09-24T04:01:19.257Z,25.11
2022-09-24T04:03:45.881Z,25.11
2022-09-24T04:06:12.506Z,25.37
2022-09-24T04:08:39.021Z,25.66
2022-09-24T04:11:05.513Z,25.11
2022-09-24T04:13:32.027Z,24.95
2022-09-24T04:16:03.437Z,25.31
2022-09-24T04:18:30.012Z,25.31
2022-09-24T04:21:00.778Z,25.67
2022-09-24T04:23:28.681Z,25.54
2022-09-24T04:25:55.270Z,25.72
2022-09-24T04:28:21.770Z,25.97
2022-09-24T04:30:48.299Z,25.66
2022-09-24T04:33:14.867Z,25.86
2022-09-24T04:35:41.440Z,26.08
2022-09-24T04:38:07.981Z,26.06
2022-09-24T04:40:34.609Z,25.89
2022-09-24T04:43:02.772Z,25.97
2022-09-24T04:45:29.261Z,26.32
2022-09-24T04:47:58.645Z,26.60
2022-09-24T04:50:28.825Z,26.52
2022-09-24T04:52:55.983Z,26.44
2022-09-24T04:55:23.767Z,26.40
2022-09-24T04:57:50.899Z,26.49
2022-09-24T05:00:20.359Z,26.15
2022-09-24T05:02:47.082Z,25.59
2022-09-24T05:05:13.957Z,25.16
2022-09-24T05:07:42.673Z,25.62
2022-09-24T05:10:09.366Z,25.51
2022-09-24T05:12:36.879Z,25.12
2022-09-24T05:15:04.141Z,24.85
2022-09-24T05:17:30.846Z,24.76
2022-09-24T05:19:59.362Z,25.22
2022-09-24T05:22:27.895Z,25.03
2022-09-24T05:24:55.098Z,24.59
2022-09-24T05:27:23.084Z,24.36
2022-09-24T05:29:50.304Z,24.57
2022-09-24T05:32:19.546Z,23.89
2022-09-24T05:34:46.971Z,23.69
2022-09-24T05:37:14.698Z,23.57
2022-09-24T05:39:41.440Z,23.70
2022-09-24T05:42:10.446Z,24.15
2022-09-24T05:44:38.022Z,24.03
2022-09-24T05:47:04.698Z,24.21
2022-09-24T05:49:31.962Z,24.48
2022-09-24T05:51:58.866Z,23.78
2022-09-24T05:54:25.470Z,23.73
2022-09-24T05:56:51.962Z,24.56
2022-09-24T05:59:18.451Z,24.71
2022-09-24T06:01:45.128Z,24.64
2022-09-24T06:04:12.630Z,24.47
2022-09-24T06:06:39.151Z,24.55
2022-09-24T06:09:06.138Z,24.05
2022-09-24T06:11:40.158Z,24.11
2022-09-24T06:14:08.626Z,23.98
2022-09-24T06:16:35.688Z,24.35
2022-09-24T06:19:03.199Z,24.91
2022-09-24T06:21:29.884Z,23.89
2022-09-24T06:23:56.411Z,23.55
2022-09-24T06:26:23.077Z,23.72
2022-09-24T06:28:50.135Z,23.72
2022-09-24T06:31:16.809Z,23.67
2022-09-24T06:33:43.402Z,23.64
2022-09-24T06:36:10.627Z,23.68
2022-09-24T06:38:39.296Z,23.89
2022-09-24T06:41:06.757Z,23.93
2022-09-24T06:43:34.212Z,23.92
2022-09-24T06:46:00.840Z,24.30
2022-09-24T06:48:28.287Z,24.68
2022-09-24T06:50:56.280Z,24.93
2022-09-24T06:53:23.127Z,25.22
2022-09-24T06:55:49.774Z,24.85
2022-09-24T06:58:20.893Z,24.65
2022-09-24T07:00:58.791Z,24.84
2022-09-24T07:03:27.206Z,25.16
2022-09-24T07:05:54.104Z,24.81
2022-09-24T07:08:20.924Z,24.54
2022-09-24T07:10:49.185Z,25.11
2022-09-24T07:13:17.056Z,24.87
2022-09-24T07:15:44.874Z,24.80
2022-09-24T07:18:12.466Z,25.59
2022-09-24T07:20:39.631Z,25.52
2022-09-24T07:23:08.719Z,25.56
2022-09-24T07:25:36.296Z,25.32
2022-09-24T07:28:08.837Z,25.36
2022-09-24T07:30:36.633Z,25.21
2022-09-24T07:33:04.402Z,25.39
2022-09-24T07:35:31.467Z,25.15
2022-09-24T07:37:58.114Z,24.91
2022-09-24T07:40:25.340Z,25.01
2022-09-24T07:42:52.152Z,25.16
2022-09-24T07:45:19.921Z,25.12
2022-09-24T07:47:46.587Z,25.04
2022-09-24T07:50:13.686Z,25.00
2022-09-24T07:52:40.431Z,25.29
2022-09-24T07:55:07.786Z,26.00
2022-09-24T07:57:34.305Z,26.39
2022-09-24T08:00:01.066Z,26.34
2022-09-24T08:02:27.848Z,26.24
2022-09-24T08:04:54.523Z,25.96
2022-09-24T08:07:21.080Z,25.85
2022-09-24T08:09:47.606Z,25.93
2022-09-24T08:12:14.107Z,25.86
2022-09-24T08:14:41.759Z,26.11
2022-09-24T08:17:08.427Z,26.54
2022-09-24T08:19:34.974Z,26.73
2022-09-24T08:22:02.080Z,26.80
2022-09-24T08:24:28.971Z,26.81
2022-09-24T08:26:55.508Z,26.14
2022-09-24T08:29:21.977Z,25.48
2022-09-24T08:31:49.129Z,25.62
2022-09-24T08:34:15.684Z,25.77
2022-09-24T08:36:43.084Z,26.11
2022-09-24T08:39:10.428Z,26.18
2022-09-24T08:41:44.103Z,26.25
2022-09-24T08:44:46.689Z,26.25
2022-09-24T08:47:23.783Z,25.79
2022-09-24T08:50:16.084Z,25.52
2022-09-24T08:52:42.750Z,25.77
2022-09-24T08:55:21.435Z,26.38
2022-09-24T08:58:01.066Z,25.98
2022-09-24T09:00:30.844Z,26.09
2022-09-24T09:03:12.510Z,26.51
2022-09-24T09:06:00.883Z,26.47
2022-09-24T09:09:01.299Z,26.44
2022-09-24T09:11:24.238Z,27.03
2022-09-24T09:13:57.826Z,27.16
2022-09-24T09:16:33.662Z,26.63
2022-09-24T09:19:06.043Z,26.35
2022-09-24T09:21:44.973Z,26.43
2022-09-24T09:24:23.256Z,26.07
2022-09-24T09:26:54.549Z,25.35
2022-09-24T09:29:27.937Z,24.95
2022-09-24T09:32:30.798Z,25.39
2022-09-24T09:35:15.012Z,25.21
2022-09-24T09:37:49.243Z,25.12
2022-09-24T09:40:53.916Z,25.13
2022-09-24T09:43:20.909Z,25.75
2022-09-24T09:45:56.425Z,26.22
2022-09-24T09:48:28.054Z,26.64
2022-09-24T09:51:00.851Z,26.64
2022-09-24T09:53:31.157Z,26.91
2022-09-24T09:56:07.378Z,26.55
2022-09-24T09:58:36.723Z,25.43
2022-09-24T10:01:04.936Z,25.69
2022-09-24T10:03:36.317Z,26.06
2022-09-24T10:06:06.238Z,25.94
2022-09-24T10:08:33.294Z,26.25
2022-09-24T10:11:01.650Z,26.45
2022-09-24T10:13:29.184Z,26.13
2022-09-24T10:15:59.191Z,25.81
2022-09-24T10:18:34.516Z,26.54
2022-09-24T10:21:05.097Z,26.16
2022-09-24T10:23:36.553Z,26.22
2022-09-24T10:26:05.145Z,26.17
2022-09-24T10:28:53.379Z,26.25
2022-09-24T10:31:25.206Z,26.67
2022-09-24T10:33:55.039Z,25.82
2022-09-24T10:36:27.870Z,25.59
2022-09-24T10:39:14.551Z,25.32
2022-09-24T10:41:49.593Z,25.28
2022-09-24T10:44:17.468Z,25.69
2022-09-24T10:47:19.836Z,25.80
2022-09-24T10:49:55.625Z,25.93
2022-09-24T10:52:42.175Z,25.77
2022-09-24T10:55:22.071Z,26.48
2022-09-24T10:57:58.256Z,26.88
2022-09-24T11:00:33.836Z,26.69
2022-09-24T11:03:16.086Z,27.00
2022-09-24T11:05:55.266Z,27.06
2022-09-24T11:08:34.874Z,27.40
2022-09-24T11:11:19.850Z,27.69
2022-09-24T11:14:17.099Z,27.32
2022-09-24T11:17:09.694Z,27.65
2022-09-24T11:19:56.554Z,27.50
2022-09-24T11:23:00.071Z,27.91
2022-09-24T11:25:52.796Z,27.13
2022-09-24T11:28:42.302Z,26.70
2022-09-24T11:31:23.246Z,26.22
2022-09-24T11:34:39.911Z,27.36
2022-09-24T11:37:23.863Z,26.58
2022-09-24T11:40:26.079Z,26.71
2022-09-24T11:43:26.365Z,26.85
2022-09-24T11:46:12.161Z,26.56
2022-09-24T11:48:58.924Z,27.04
2022-09-24T11:52:01.574Z,26.46
2022-09-24T11:54:42.831Z,26.47
2022-09-24T11:57:18.728Z,27.09
2022-09-24T12:00:11.948Z,26.46
2022-09-24T12:02:50.560Z,26.60
2022-09-24T12:05:35.569Z,25.76
2022-09-24T12:08:20.963Z,26.09
2022-09-24T12:11:14.304Z,26.06
2022-09-24T12:13:57.382Z,26.43
2022-09-24T12:16:30.012Z,26.42
2022-09-24T12:19:06.502Z,26.69
2022-09-24T12:21:45.277Z,27.48
2022-09-24T12:24:29.101Z,27.06
2022-09-24T12:26:58.611Z,27.64
2022-09-24T12:29:59.196Z,27.17
2022-09-24T12:32:54.200Z,26.17
2022-09-24T12:35:33.258Z,27.11
2022-09-24T12:38:21.574Z,26.47
2022-09-24T12:41:06.963Z,26.44
2022-09-24T12:43:42.964Z,26.24
2022-09-24T12:46:21.497Z,26.76
2022-09-24T12:48:49.993Z,27.26
2022-09-24T12:51:22.076Z,26.92
2022-09-24T12:53:58.532Z,26.47
2022-09-24T12:56:30.785Z,27.34
2022-09-24T12:58:58.132Z,27.64
2022-09-24T13:01:24.693Z,27.55
2022-09-24T13:04:16.489Z,27.85
2022-09-24T13:06:47.810Z,27.75
2022-09-24T13:09:34.506Z,27.68
2022-09-24T13:12:14.266Z,27.42
2022-09-24T13:14:44.082Z,27.41
2022-09-24T13:17:15.614Z,27.94
2022-09-24T13:19:47.395Z,27.80
2022-09-24T13:22:22.982Z,27.29
2022-09-24T13:24:52.615Z,28.03
2022-09-24T13:27:31.354Z,28.08
2022-09-24T13:34:48.570Z,28.34
2022-09-24T13:37:23.045Z,28.24
2022-09-24T13:39:58.547Z,28.10
2022-09-24T13:42:47.556Z,28.15
2022-09-24T13:45:21.806Z,28.31
2022-09-24T13:47:53.474Z,28.27
2022-09-24T13:50:23.676Z,28.06
2022-09-24T13:53:00.758Z,28.53
2022-09-24T13:55:30.985Z,28.42
2022-09-24T13:57:58.070Z,27.70
2022-09-24T14:00:27.455Z,27.95
2022-09-24T14:02:59.372Z,28.20
2022-09-24T14:05:27.009Z,28.14
2022-09-24T14:08:02.771Z,28.23
2022-09-24T14:10:29.808Z,28.30
2022-09-24T14:13:14.075Z,28.79
2022-09-24T14:16:07.547Z,28.28
2022-09-24T14:18:35.181Z,28.76
2022-09-24T14:21:10.459Z,28.75
2022-09-24T14:23:43.221Z,28.78
2022-09-24T14:26:21.579Z,28.90
2022-09-24T14:28:48.304Z,28.86
2022-09-24T14:31:14.947Z,29.23
2022-09-24T14:33:41.786Z,29.33
2022-09-24T14:36:12.619Z,29.51
2022-09-24T14:39:01.631Z,29.30
2022-09-24T14:41:36.248Z,29.34
2022-09-24T14:44:07.784Z,29.31
2022-09-24T14:46:40.907Z,29.66
2022-09-24T14:49:24.060Z,29.04
2022-09-24T14:51:58.759Z,29.32
2022-09-24T14:54:42.502Z,28.60
2022-09-24T14:57:35.476Z,28.52
2022-09-24T15:00:02.265Z,28.44
2022-09-24T15:02:28.811Z,29.20
2022-09-24T15:05:04.809Z,29.29
2022-09-24T15:07:34.445Z,29.20
2022-09-24T15:10:02.692Z,29.27
2022-09-24T15:12:32.395Z,29.23
2022-09-24T15:15:00.217Z,29.46
2022-09-24T15:17:34.762Z,29.40
2022-09-24T15:20:04.052Z,29.74
2022-09-24T15:22:31.492Z,29.61
2022-09-24T15:25:01.906Z,29.69
2022-09-24T15:27:32.165Z,29.93
2022-09-24T15:30:01.388Z,29.85
2022-09-24T15:32:31.160Z,30.06
2022-09-24T15:34:58.088Z,29.98
2022-09-24T15:37:26.540Z,30.10
2022-09-24T15:39:57.703Z,30.00
2022-09-24T15:42:27.444Z,29.87
2022-09-24T15:44:54.702Z,29.88
2022-09-24T15:47:21.300Z,29.39
2022-09-24T15:49:48.238Z,29.54
2022-09-24T15:52:24.242Z,29.82
2022-09-24T15:54:52.292Z,29.77
2022-09-24T15:57:18.892Z,29.93
2022-09-24T15:59:45.464Z,29.41
2022-09-24T16:02:18.037Z,29.36
2022-09-24T16:04:45.026Z,29.11
2022-09-24T16:07:11.602Z,28.93
2022-09-24T16:09:38.443Z,29.27
2022-09-24T16:12:05.196Z,29.52
2022-09-24T16:14:32.367Z,29.83
2022-09-24T16:16:58.874Z,29.62
2022-09-24T16:19:25.847Z,29.63
2022-09-24T16:21:52.445Z,29.84
2022-09-24T16:24:19.004Z,29.77
2022-09-24T16:26:45.559Z,29.37
2022-09-24T16:29:12.201Z,29.66
2022-09-24T16:31:39.125Z,29.19
2022-09-24T16:34:05.705Z,29.34
2022-09-24T16:36:32.216Z,29.14
2022-09-24T16:38:58.747Z,29.12
2022-09-24T16:41:25.634Z,29.50
2022-09-24T16:43:55.709Z,29.49
2022-09-24T16:46:23.145Z,29.21
2022-09-24T16:48:49.890Z,29.50
2022-09-24T16:51:17.302Z,29.46
2022-09-24T16:53:48.391Z,29.30
2022-09-24T16:56:17.279Z,29.32
2022-09-24T16:58:45.801Z,29.11
2022-09-24T17:01:18.399Z,29.09
2022-09-24T17:03:49.956Z,28.97
2022-09-24T17:06:22.059Z,28.67
2022-09-24T17:09:07.419Z,28.75
2022-09-24T17:11:34.344Z,28.66
2022-09-24T17:14:01.180Z,28.66
2022-09-24T17:16:27.810Z,28.83
2022-09-24T17:18:55.282Z,29.03
2022-09-24T17:21:22.815Z,28.92
2022-09-24T17:23:50.300Z,28.75
2022-09-24T17:26:19.397Z,29.03
2022-09-24T17:28:47.200Z,28.75
2022-09-24T17:31:16.303Z,28.76
2022-09-24T17:33:44.377Z,28.78
2022-09-24T17:36:14.076Z,28.99
2022-09-24T17:38:40.696Z,28.48
2022-09-24T17:41:10.308Z,28.56
2022-09-24T17:43:38.075Z,28.48
2022-09-24T17:46:12.891Z,28.23
2022-09-24T17:48:44.377Z,28.34
2022-09-24T17:51:19.114Z,28.33
2022-09-24T17:53:46.869Z,28.73
2022-09-24T17:56:14.772Z,28.63
2022-09-24T17:58:44.318Z,28.03
2022-09-24T18:01:17.478Z,27.88
2022-09-24T18:03:45.548Z,28.08
2022-09-24T18:06:14.744Z,28.28
2022-09-24T18:08:44.077Z,28.13
2022-09-24T18:11:17.339Z,28.05
2022-09-24T18:13:44.756Z,27.81
2022-09-24T18:16:16.513Z,28.40
2022-09-24T18:18:44.704Z,28.34
2022-09-24T18:21:14.083Z,27.94
2022-09-24T18:23:41.648Z,28.27
2022-09-24T18:26:11.308Z,28.41
2022-09-24T18:28:43.370Z,27.92
2022-09-24T18:31:10.705Z,28.11
2022-09-24T18:33:39.531Z,28.48
2022-09-24T18:36:08.796Z,27.89
2022-09-24T18:38:35.401Z,28.16
2022-09-24T18:41:08.006Z,28.21
2022-09-24T18:43:34.975Z,28.10
2022-09-24T18:46:07.046Z,28.02
2022-09-24T18:48:34.039Z,27.72
2022-09-24T18:51:00.764Z,27.79
2022-09-24T18:53:31.324Z,27.80
2022-09-24T18:56:02.950Z,27.54
2022-09-24T18:58:29.450Z,27.69
2022-09-24T19:01:00.463Z,27.65
2022-09-24T19:03:28.511Z,27.98
2022-09-24T19:06:00.206Z,28.01
2022-09-24T19:08:28.353Z,28.18
2022-09-24T19:10:55.434Z,28.08
2022-09-24T19:13:26.208Z,28.08
2022-09-24T19:15:53.173Z,27.95
2022-09-24T19:18:20.232Z,27.92
2022-09-24T19:20:48.652Z,27.89
2022-09-24T19:23:17.102Z,28.03
2022-09-24T19:25:43.790Z,28.09
2022-09-24T19:28:12.447Z,28.14
2022-09-24T19:30:47.571Z,28.22
2022-09-24T19:33:17.036Z,28.34
2022-09-24T19:35:54.247Z,28.38
2022-09-24T19:38:29.055Z,28.38
2022-09-24T19:40:57.816Z,28.26
2022-09-24T19:43:24.764Z,27.65
2022-09-24T19:45:56.006Z,28.18
2022-09-24T19:48:22.765Z,28.19
2022-09-24T19:50:49.342Z,28.16
2022-09-24T19:53:16.763Z,28.12
2022-09-24T19:55:44.402Z,27.91
2022-09-24T19:58:11.237Z,27.97
2022-09-24T20:00:38.900Z,28.24
2022-09-24T20:03:05.646Z,28.33
2022-09-24T20:05:32.288Z,28.35
2022-09-24T20:07:59.015Z,28.52
2022-09-24T20:10:25.570Z,28.50
2022-09-24T20:12:54.367Z,28.37
2022-09-24T20:15:22.280Z,28.23
2022-09-24T20:17:48.837Z,28.45
2022-09-24T20:20:15.933Z,28.65
2022-09-24T20:22:42.500Z,28.64
2022-09-24T20:25:09.316Z,28.81
2022-09-24T20:27:51.134Z,28.73
2022-09-24T20:30:24.165Z,29.01
2022-09-24T20:32:50.923Z,28.85
2022-09-24T20:35:17.463Z,28.77
2022-09-24T20:37:44.705Z,28.92
2022-09-24T20:40:11.505Z,29.02
2022-09-24T20:42:38.808Z,29.18
2022-09-24T20:45:07.159Z,29.09
2022-09-24T20:47:33.673Z,28.78
2022-09-24T20:50:00.204Z,28.60
2022-09-24T20:52:26.943Z,28.84
2022-09-24T20:54:53.454Z,28.40
2022-09-24T20:57:19.945Z,28.25
2022-09-24T20:59:46.492Z,28.62
2022-09-24T21:02:13.084Z,28.48
2022-09-24T21:04:39.664Z,28.44
2022-09-24T21:07:06.245Z,28.70
2022-09-24T21:09:32.986Z,28.70
2022-09-24T21:12:01.354Z,28.42
2022-09-24T21:14:28.807Z,28.50
2022-09-24T21:16:55.380Z,28.57
2022-09-24T21:19:21.994Z,28.64
2022-09-24T21:21:48.500Z,28.76
2022-09-24T21:24:15.635Z,28.99
2022-09-24T21:26:44.935Z,28.83
2022-09-24T21:29:17.448Z,28.85
2022-09-24T21:31:46.114Z,29.07
2022-09-24T21:34:15.761Z,29.00
2022-09-24T21:36:45.341Z,28.79
2022-09-24T21:39:22.778Z,29.02
2022-09-24T21:41:51.176Z,29.01
2022-09-24T21:44:19.029Z,29.14
2022-09-24T21:46:46.212Z,29.10
2022-09-24T21:49:13.368Z,29.13
2022-09-24T21:51:41.027Z,28.97
2022-09-24T21:54:14.187Z,28.38
2022-09-24T21:56:40.923Z,28.57
2022-09-24T21:59:27.519Z,28.64
2022-09-24T22:01:55.411Z,28.44
2022-09-24T22:04:22.518Z,28.51
2022-09-24T22:06:50.864Z,28.56
2022-09-24T22:09:18.415Z,28.54
2022-09-24T22:11:45.475Z,28.26
2022-09-24T22:14:13.057Z,28.16
2022-09-24T22:16:40.023Z,27.99
2022-09-24T22:19:09.280Z,28.09
2022-09-24T22:21:36.465Z,28.30
2022-09-24T22:24:03.559Z,28.18
2022-09-24T22:26:30.129Z,27.09
2022-09-24T22:28:57.071Z,27.77
2022-09-24T22:31:23.778Z,27.51
2022-09-24T22:34:08.979Z,27.56
2022-09-24T22:36:36.283Z,27.66
2022-09-24T22:39:04.426Z,27.83
2022-09-24T22:41:32.676Z,27.82
2022-09-24T22:43:59.315Z,28.07
2022-09-24T22:46:27.132Z,28.02
2022-09-24T22:48:55.042Z,28.15
2022-09-24T22:51:22.691Z,28.11
2022-09-24T22:53:49.698Z,28.53
2022-09-24T22:56:18.984Z,28.26
2022-09-24T22:58:51.743Z,28.32
2022-09-24T23:01:24.253Z,28.32
2022-09-24T23:03:52.513Z,28.15
2022-09-24T23:06:20.767Z,28.08
2022-09-24T23:08:48.425Z,28.37
2022-09-24T23:11:16.354Z,28.44
2022-09-24T23:13:44.376Z,28.52
2022-09-24T23:16:17.807Z,28.53
2022-09-24T23:18:48.933Z,28.46
2022-09-24T23:21:17.022Z,27.97
2022-09-24T23:23:44.683Z,28.38
2022-09-24T23:26:16.749Z,28.50
2022-09-24T23:28:52.661Z,28.44
2022-09-24T23:31:22.347Z,28.50
2022-09-24T23:33:49.882Z,28.63
2022-09-24T23:36:17.019Z,28.72
2022-09-24T23:38:44.219Z,28.59
2022-09-24T23:41:12.222Z,28.69
2022-09-24T23:43:38.992Z,28.56
2022-09-24T23:46:05.879Z,28.43
2022-09-24T23:48:32.737Z,28.64
2022-09-24T23:50:59.418Z,28.66
2022-09-24T23:53:26.550Z,28.50
2022-09-24T23:55:54.905Z,28.50
2022-09-24T23:58:23.077Z,28.35
